x

Monterey - 27nm Wnw Of Monterey, Ca (46042) Wave Buoy

5:50pm - Sat 19th Apr 2014 All times are PDT. -7 hours from GMT.

  • Sig Wave height 6.2ft
  • Swell Direction
  • Peak Period 14s
  • Average Period 7s
  • Wind
    16mph, 20mph gusts
  • Sea Temp 56°f
  • Air Temp 55°f
  • Sea Pressure 1020.3mb
  • Monterey - 27nm Wnw Of Monterey, Ca
  • Monterey - 27nm Wnw Of Monterey, Ca

More Historic Weather Station data

Upgrade to MSW Pro to gain access to the past 30 days of data for over 8000 Wavebouys and Weather Stations around the globe.

Join Pro

Comparision Forecast

View Surf forecast
   
Sat 04/19 5:50pm 6ft 14s 7s 16 20 mph 1020.3mb 56f 55f
4:50pm 6ft 14s 7s 20 25 mph 1020.2mb 56f 54f
3:50pm 6ft 14s 7s 18 22 mph 1020.3mb 56f 54f
2:50pm 6ft 14s 7s 18 22 mph 1020.6mb 56f 54f
1:50pm 6ft 14s 7s 16 18 mph 1020.5mb 56f 55f
12:50pm 6.5ft 10s 7s 11 13 mph 1020.4mb 56f 54f
11:50am 7ft 8s 7s 11 13 mph 1020.4mb 56f 54f
10:50am 6.5ft 10s 7s 11 13 mph 1020mb 56f 54f
9:50am 7ft 9s 7s 11 13 mph 1019.5mb 56f 53f
8:50am 7ft 15s 7s 11
mph
1019mb 55f 53f
7:50am 6.5ft 9s 7s 16 20 mph 1018.8mb 55f 53f
6:50am 7ft 10s 7s 13 16 mph 1017.6mb 55f 53f
5:50am 6ft 10s 7s 13 16 mph 1017mb 55f 53f
4:50am 7ft 11s 7s 13 16 mph 1016.6mb 55f 53f
3:50am 7ft 11s 7s 13 16 mph 1016.3mb 55f 53f
2:50am 8ft 11s 7s 13 16 mph 1015.8mb 56f 53f
1:50am 7.5ft 15s 8s 13 16 mph 1015.5mb 56f 53f
12:50am 7.5ft 15s 7s 11 13 mph 1015.6mb 56f 53f
Fri 04/18 11:50pm 7ft 11s 7s 11 16 mph 1015.5mb 56f 53f
10:50pm 7ft 11s 7s 9 11 mph 1015.4mb 56f 53f
9:50pm 7ft 11s 7s 11 13 mph 1015.6mb 56f 54f
8:50pm 8ft 10s 7s 13 18 mph 1014.9mb 56f 54f
7:50pm 7ft 11s 7s 13 18 mph 1014.6mb 56f 54f
6:50pm 8ft 10s 7s 18 22 mph 1014.2mb 56f 54f
5:50pm 8ft 11s 7s 18 20 mph 1014mb 55f 54f
4:50pm 7.5ft 11s 7s 18 25 mph 1014.1mb 55f 54f
3:50pm 8ft 11s 7s 18 22 mph 1014.2mb 55f 53f
2:50pm 8.5ft 8s 7s 20 27 mph 1014.6mb 55f 53f
1:50pm 8.5ft 11s 7s 20 25 mph 1014.7mb 55f 53f
12:50pm 8ft 8s 7s 20 25 mph 1014.8mb 55f 53f
11:50am 8.5ft 8s 7s 18 22 mph 1015.1mb 55f 52f
10:50am 9ft 8s 7s 18 22 mph 1015.2mb 55f 52f
9:50am 8.5ft 9s 7s 22 25 mph 1014.8mb 55f 53f
8:50am 9ft 10s 7s 20 27 mph 1014.3mb 55f 53f
7:50am 9ft 9s 7s 20 27 mph 1014.2mb 55f 54f
6:50am 9ft 7s 6s 22 29 mph 1013.5mb 55f 54f
5:50am 9ft 11s 7s 25 29 mph 1012.8mb 55f 54f
4:50am 9.5ft 11s 7s 25 29 mph 1012.9mb 55f 54f
3:50am 9ft 12s 7s 22 29 mph 1012.7mb 55f 54f
2:50am 10.5ft 11s 7s 20 27 mph 1012.6mb 55f 55f
1:50am 10ft 8s 7s 20 25 mph 1012.8mb 55f 55f
12:50am 10ft 8s 7s 20 27 mph 1013.1mb 55f 55f
Thu 04/17 11:50pm 10ft 9s 7s 20 27 mph 1013.1mb 55f 55f
10:50pm 10.5ft 11s 8s 20 25 mph 1012.8mb 55f 54f
9:50pm 10ft 8s 7s 20 27 mph 1012.7mb 55f 55f
8:50pm 10.5ft 9s 8s 16 18 mph 1012.7mb 55f 55f
7:50pm 11ft 9s 8s 16 20 mph 1012.5mb 55f 55f
6:50pm 10ft 12s 7s 13 18 mph 1012.9mb 55f 54f
5:50pm 10ft 10s 7s 20 22 mph 1013mb 55f 54f
4:50pm 10.5ft 10s 7s 22 29 mph 1012.7mb 55f 54f
3:50pm 10.5ft 9s 7s 22 29 mph 1013mb 55f 54f
2:50pm 10ft 12s 7s 22 27 mph 1013.3mb 55f 54f
1:50pm 10ft 10s 7s 20 25 mph 1013.5mb 55f 54f
12:50pm 10ft 9s 7s 22 27 mph 1013.7mb 55f 53f
11:50am 9.5ft 8s 7s 22 27 mph 1013.7mb 55f 53f
10:50am 9ft 10s 7s 22 27 mph 1013.2mb 55f 53f
9:50am 9ft 9s 7s 25 29 mph 1012.6mb 55f 53f
8:50am 9ft 10s 7s 22 27 mph 1012mb 55f 53f
7:50am 9ft 9s 7s 20 25 mph 1011.4mb 55f 53f
6:50am 10ft 11s 7s 18 22 mph 1010.7mb 55f 53f
5:50am 10ft 9s 7s 18 20 mph 1010.1mb 55f 53f
4:50am 9.5ft 11s 7s 18 22 mph 1010.3mb 55f 53f
3:50am 11ft 10s 8s 20 25 mph 1010.3mb 55f 54f
2:50am 11ft 10s 7s 18 22 mph 1010.7mb 55f 53f
1:50am 11.5ft 10s 7s 20 27 mph 1010.5mb 55f 53f
12:50am 11ft 9s 8s 20 25 mph 1011.6mb 55f 54f
Wed 04/16 11:50pm 11ft 10s 7s 20 27 mph 1011.8mb 55f 54f
10:50pm 11ft 10s 7s 22 27 mph 1011.8mb 55f 54f
9:50pm 11ft 10s 7s 25 31 mph 1011.4mb 55f 54f
8:50pm 12ft 10s 7s 27 31 mph 1011.2mb 55f 55f
7:50pm 11ft 10s 7s 27 31 mph 1010.8mb 55f 55f
6:50pm 12ft 10s 7s 27 31 mph 1010.9mb 55f 55f
5:50pm 10.5ft 11s 7s 25 29 mph 1011.3mb 55f 55f
4:50pm 11ft 11s 7s 25 29 mph 1011.5mb 56f 55f
3:50pm 11ft 11s 7s 25 29 mph 1011.8mb 56f 55f
2:50pm 11ft 11s 7s 25 29 mph 1012.2mb 56f 54f
1:50pm 11ft 10s 7s 22 27 mph 1012.6mb 56f 54f
12:50pm 11ft 11s 7s 22 27 mph 1013.3mb 56f 54f
11:50am 11ft 10s 7s 20 25 mph 1013.6mb 55f 54f
10:50am 10ft 11s 7s 18 22 mph 1013.8mb 55f 54f
9:50am 11ft 9s 7s 18 25 mph 1013.5mb 55f 54f
8:50am 11ft 10s 7s 20 25 mph 1013.8mb 55f 54f
7:50am 10.5ft 11s 7s 20 25 mph 1013.7mb 55f 54f
6:50am 10ft 11s 7s 20 25 mph 1013.3mb 55f 54f
5:50am 10.5ft 10s 7s 20 25 mph 1013.4mb 55f 54f
4:50am 11.5ft 10s 8s 20 25 mph 1013.4mb 55f 54f
3:50am 11.5ft 9s 8s 20 27 mph 1013.9mb 55f 54f
2:50am 11ft 9s 8s 20 25 mph 1014.1mb 55f 54f